sensor_id;sensor_type;location;lat;lon;timestamp;P1;durP1;ratioP1;P2;durP2;ratioP2
12302;SDS011;6214;48.012;7.862;2023-04-25T00:02:13;16.20;;;1.42;;
12302;SDS011;6214;48.012;7.862;2023-04-25T00:04:41;15.90;;;1.23;;
12302;SDS011;6214;48.012;7.862;2023-04-25T00:07:09;16.70;;;1.45;;
12302;SDS011;6214;48.012;7.862;2023-04-25T00:09:36;16.10;;;1.40;;
12302;SDS011;6214;48.012;7.862;2023-04-25T00:12:03;16.45;;;1.60;;
12302;SDS011;6214;48.012;7.862;2023-04-25T00:14:30;16.30;;;1.30;;
12302;SDS011;6214;48.012;7.862;2023-04-25T00:17:00;16.23;;;1.40;;
12302;SDS011;6214;48.012;7.862;2023-04-25T00:19:27;16.30;;;1.40;;
12302;SDS011;6214;48.012;7.862;2023-04-25T00:21:55;16.00;;;1.20;;
12302;SDS011;6214;48.012;7.862;2023-04-25T00:24:22;15.80;;;1.13;;
12302;SDS011;6214;48.012;7.862;2023-04-25T00:26:48;15.70;;;1.10;;
12302;SDS011;6214;48.012;7.862;2023-04-25T00:29:15;16.00;;;1.20;;
12302;SDS011;6214;48.012;7.862;2023-04-25T00:31:42;16.10;;;1.40;;
12302;SDS011;6214;48.012;7.862;2023-04-25T00:34:09;16.17;;;1.50;;
12302;SDS011;6214;48.012;7.862;2023-04-25T00:36:36;16.40;;;1.48;;
12302;SDS011;6214;48.012;7.862;2023-04-25T00:39:04;15.90;;;1.30;;
12302;SDS011;6214;48.012;7.862;2023-04-25T00:41:31;16.60;;;1.40;;
12302;SDS011;6214;48.012;7.862;2023-04-25T00:43:58;16.00;;;1.50;;
12302;SDS011;6214;48.012;7.862;2023-04-25T00:46:27;16.00;;;1.43;;
12302;SDS011;6214;48.012;7.862;2023-04-25T00:48:54;15.70;;;1.00;;
12302;SDS011;6214;48.012;7.862;2023-04-25T00:51:21;15.90;;;1.23;;
12302;SDS011;6214;48.012;7.862;2023-04-25T00:53:48;16.00;;;1.20;;
12302;SDS011;6214;48.012;7.862;2023-04-25T00:56:17;16.00;;;1.50;;
12302;SDS011;6214;48.012;7.862;2023-04-25T00:58:44;16.00;;;1.50;;
12302;SDS011;6214;48.012;7.862;2023-04-25T01:01:12;16.25;;;1.38;;
12302;SDS011;6214;48.012;7.862;2023-04-25T01:03:39;17.58;;;1.40;;
12302;SDS011;6214;48.012;7.862;2023-04-25T01:06:08;16.20;;;1.38;;
12302;SDS011;6214;48.012;7.862;2023-04-25T01:08:36;15.90;;;1.20;;
12302;SDS011;6214;48.012;7.862;2023-04-25T01:11:04;16.00;;;1.40;;
12302;SDS011;6214;48.012;7.862;2023-04-25T01:13:32;16.13;;;1.33;;
12302;SDS011;6214;48.012;7.862;2023-04-25T01:16:00;16.50;;;1.40;;
12302;SDS011;6214;48.012;7.862;2023-04-25T01:18:28;16.30;;;1.40;;
12302;SDS011;6214;48.012;7.862;2023-04-25T01:20:55;16.23;;;1.30;;
12302;SDS011;6214;48.012;7.862;2023-04-25T01:23:34;16.10;;;1.50;;
12302;SDS011;6214;48.012;7.862;2023-04-25T01:26:02;16.05;;;1.38;;
12302;SDS011;6214;48.012;7.862;2023-04-25T01:28:30;16.30;;;1.30;;
12302;SDS011;6214;48.012;7.862;2023-04-25T01:30:57;16.10;;;1.20;;
12302;SDS011;6214;48.012;7.862;2023-04-25T01:33:25;15.88;;;1.27;;
12302;SDS011;6214;48.012;7.862;2023-04-25T01:35:52;16.67;;;1.30;;
12302;SDS011;6214;48.012;7.862;2023-04-25T01:38:19;16.30;;;1.35;;
12302;SDS011;6214;48.012;7.862;2023-04-25T01:40:46;16.20;;;1.30;;
12302;SDS011;6214;48.012;7.862;2023-04-25T01:43:15;16.20;;;1.40;;
12302;SDS011;6214;48.012;7.862;2023-04-25T01:45:42;16.00;;;1.40;;
12302;SDS011;6214;48.012;7.862;2023-04-25T01:48:10;16.17;;;1.40;;
12302;SDS011;6214;48.012;7.862;2023-04-25T01:50:40;15.90;;;1.30;;
12302;SDS011;6214;48.012;7.862;2023-04-25T01:53:08;16.25;;;1.40;;
12302;SDS011;6214;48.012;7.862;2023-04-25T01:55:37;16.40;;;1.48;;
12302;SDS011;6214;48.012;7.862;2023-04-25T01:58:04;16.00;;;1.40;;
12302;SDS011;6214;48.012;7.862;2023-04-25T02:00:35;16.10;;;1.50;;
12302;SDS011;6214;48.012;7.862;2023-04-25T02:03:07;15.80;;;1.38;;
12302;SDS011;6214;48.012;7.862;2023-04-25T02:05:35;16.00;;;1.40;;
12302;SDS011;6214;48.012;7.862;2023-04-25T02:08:04;17.00;;;1.50;;
12302;SDS011;6214;48.012;7.862;2023-04-25T02:10:32;16.13;;;1.30;;
12302;SDS011;6214;48.012;7.862;2023-04-25T02:13:00;16.50;;;1.40;;
12302;SDS011;6214;48.012;7.862;2023-04-25T02:15:27;15.80;;;1.30;;
12302;SDS011;6214;48.012;7.862;2023-04-25T02:17:54;15.90;;;1.30;;
12302;SDS011;6214;48.012;7.862;2023-04-25T02:20:22;15.98;;;1.50;;
12302;SDS011;6214;48.012;7.862;2023-04-25T02:22:50;16.23;;;1.40;;
12302;SDS011;6214;48.012;7.862;2023-04-25T02:25:18;16.20;;;1.30;;
12302;SDS011;6214;48.012;7.862;2023-04-25T02:27:46;15.80;;;1.33;;
12302;SDS011;6214;48.012;7.862;2023-04-25T02:30:14;16.25;;;1.27;;
12302;SDS011;6214;48.012;7.862;2023-04-25T02:32:41;16.10;;;1.60;;
12302;SDS011;6214;48.012;7.862;2023-04-25T02:35:09;16.48;;;1.55;;
12302;SDS011;6214;48.012;7.862;2023-04-25T02:37:36;16.60;;;1.30;;
12302;SDS011;6214;48.012;7.862;2023-04-25T02:40:04;16.08;;;1.20;;
12302;SDS011;6214;48.012;7.862;2023-04-25T02:42:32;16.80;;;1.40;;
12302;SDS011;6214;48.012;7.862;2023-04-25T02:44:59;15.70;;;1.30;;
12302;SDS011;6214;48.012;7.862;2023-04-25T02:47:26;16.30;;;1.30;;
12302;SDS011;6214;48.012;7.862;2023-04-25T02:49:53;16.30;;;1.70;;
12302;SDS011;6214;48.012;7.862;2023-04-25T02:52:20;16.30;;;1.57;;
12302;SDS011;6214;48.012;7.862;2023-04-25T02:54:47;15.80;;;1.13;;
12302;SDS011;6214;48.012;7.862;2023-04-25T02:57:14;15.73;;;1.30;;
12302;SDS011;6214;48.012;7.862;2023-04-25T02:59:41;16.40;;;1.30;;
12302;SDS011;6214;48.012;7.862;2023-04-25T03:02:09;16.37;;;1.50;;
12302;SDS011;6214;48.012;7.862;2023-04-25T03:04:36;15.90;;;1.30;;
12302;SDS011;6214;48.012;7.862;2023-04-25T03:07:03;16.10;;;1.30;;
12302;SDS011;6214;48.012;7.862;2023-04-25T03:09:30;15.82;;;1.27;;
12302;SDS011;6214;48.012;7.862;2023-04-25T03:11:57;16.25;;;1.30;;
12302;SDS011;6214;48.012;7.862;2023-04-25T03:14:24;16.10;;;1.30;;
12302;SDS011;6214;48.012;7.862;2023-04-25T03:16:51;16.00;;;1.30;;
12302;SDS011;6214;48.012;7.862;2023-04-25T03:19:18;15.90;;;1.30;;
12302;SDS011;6214;48.012;7.862;2023-04-25T03:21:46;15.90;;;1.30;;
12302;SDS011;6214;48.012;7.862;2023-04-25T03:24:14;16.03;;;1.20;;
12302;SDS011;6214;48.012;7.862;2023-04-25T03:26:41;15.70;;;1.20;;
12302;SDS011;6214;48.012;7.862;2023-04-25T03:29:08;15.60;;;1.10;;
12302;SDS011;6214;48.012;7.862;2023-04-25T03:31:35;15.70;;;1.15;;
12302;SDS011;6214;48.012;7.862;2023-04-25T03:34:02;16.10;;;1.20;;
12302;SDS011;6214;48.012;7.862;2023-04-25T03:36:29;15.90;;;1.30;;
12302;SDS011;6214;48.012;7.862;2023-04-25T03:38:56;16.17;;;1.25;;
12302;SDS011;6214;48.012;7.862;2023-04-25T03:41:23;15.80;;;1.10;;
12302;SDS011;6214;48.012;7.862;2023-04-25T03:43:51;16.03;;;1.20;;
12302;SDS011;6214;48.012;7.862;2023-04-25T03:46:18;15.85;;;1.20;;
12302;SDS011;6214;48.012;7.862;2023-04-25T03:48:45;15.98;;;1.20;;
12302;SDS011;6214;48.012;7.862;2023-04-25T03:51:12;15.90;;;1.20;;
12302;SDS011;6214;48.012;7.862;2023-04-25T03:53:39;16.50;;;1.20;;
12302;SDS011;6214;48.012;7.862;2023-04-25T03:56:06;15.82;;;1.20;;
12302;SDS011;6214;48.012;7.862;2023-04-25T03:58:33;15.70;;;1.17;;
12302;SDS011;6214;48.012;7.862;2023-04-25T04:01:00;15.70;;;1.10;;
12302;SDS011;6214;48.012;7.862;2023-04-25T04:03:29;16.20;;;1.30;;
12302;SDS011;6214;48.012;7.862;2023-04-25T04:05:57;15.82;;;1.05;;
12302;SDS011;6214;48.012;7.862;2023-04-25T04:08:24;15.95;;;1.15;;
12302;SDS011;6214;48.012;7.862;2023-04-25T04:10:51;16.45;;;1.10;;
12302;SDS011;6214;48.012;7.862;2023-04-25T04:13:18;16.20;;;1.20;;
12302;SDS011;6214;48.012;7.862;2023-04-25T04:15:44;16.45;;;1.70;;
12302;SDS011;6214;48.012;7.862;2023-04-25T04:18:11;15.90;;;1.30;;
12302;SDS011;6214;48.012;7.862;2023-04-25T04:20:38;16.30;;;1.30;;
12302;SDS011;6214;48.012;7.862;2023-04-25T04:23:05;16.60;;;1.30;;
12302;SDS011;6214;48.012;7.862;2023-04-25T04:25:32;16.30;;;1.20;;
12302;SDS011;6214;48.012;7.862;2023-04-25T04:28:00;16.20;;;1.40;;
12302;SDS011;6214;48.012;7.862;2023-04-25T04:30:27;15.90;;;1.30;;
12302;SDS011;6214;48.012;7.862;2023-04-25T04:32:57;16.00;;;1.25;;
12302;SDS011;6214;48.012;7.862;2023-04-25T04:35:24;16.23;;;1.30;;
12302;SDS011;6214;48.012;7.862;2023-04-25T04:37:51;15.70;;;1.20;;
12302;SDS011;6214;48.012;7.862;2023-04-25T04:40:19;15.80;;;1.20;;
12302;SDS011;6214;48.012;7.862;2023-04-25T04:42:46;16.10;;;1.30;;
12302;SDS011;6214;48.012;7.862;2023-04-25T04:45:14;15.63;;;1.13;;
12302;SDS011;6214;48.012;7.862;2023-04-25T04:47:42;16.10;;;1.30;;
12302;SDS011;6214;48.012;7.862;2023-04-25T04:50:09;15.77;;;1.23;;
12302;SDS011;6214;48.012;7.862;2023-04-25T04:52:37;16.30;;;1.10;;
12302;SDS011;6214;48.012;7.862;2023-04-25T04:55:05;16.00;;;1.20;;
12302;SDS011;6214;48.012;7.862;2023-04-25T04:57:32;15.93;;;1.30;;
12302;SDS011;6214;48.012;7.862;2023-04-25T04:59:59;15.90;;;1.10;;
12302;SDS011;6214;48.012;7.862;2023-04-25T05:02:26;15.90;;;1.10;;
12302;SDS011;6214;48.012;7.862;2023-04-25T05:04:55;15.70;;;1.10;;
12302;SDS011;6214;48.012;7.862;2023-04-25T05:07:23;15.70;;;1.10;;
12302;SDS011;6214;48.012;7.862;2023-04-25T05:09:49;15.70;;;1.10;;
12302;SDS011;6214;48.012;7.862;2023-04-25T05:12:16;15.60;;;1.10;;
12302;SDS011;6214;48.012;7.862;2023-04-25T05:14:44;16.30;;;1.50;;
12302;SDS011;6214;48.012;7.862;2023-04-25T05:17:10;16.20;;;1.50;;
12302;SDS011;6214;48.012;7.862;2023-04-25T05:19:38;16.20;;;1.20;;
12302;SDS011;6214;48.012;7.862;2023-04-25T05:22:05;15.93;;;1.20;;
12302;SDS011;6214;48.012;7.862;2023-04-25T05:24:32;15.85;;;1.33;;
12302;SDS011;6214;48.012;7.862;2023-04-25T05:26:59;16.63;;;1.70;;
12302;SDS011;6214;48.012;7.862;2023-04-25T05:29:26;16.20;;;1.60;;
12302;SDS011;6214;48.012;7.862;2023-04-25T05:31:53;16.50;;;1.67;;
12302;SDS011;6214;48.012;7.862;2023-04-25T05:34:20;16.50;;;1.70;;
12302;SDS011;6214;48.012;7.862;2023-04-25T05:36:47;16.55;;;1.65;;
12302;SDS011;6214;48.012;7.862;2023-04-25T05:39:15;16.48;;;1.50;;
12302;SDS011;6214;48.012;7.862;2023-04-25T05:41:43;16.95;;;1.50;;
12302;SDS011;6214;48.012;7.862;2023-04-25T05:44:10;16.30;;;1.48;;
12302;SDS011;6214;48.012;7.862;2023-04-25T05:46:37;15.80;;;1.20;;
12302;SDS011;6214;48.012;7.862;2023-04-25T05:49:04;16.20;;;1.38;;
12302;SDS011;6214;48.012;7.862;2023-04-25T05:51:31;15.80;;;1.10;;
12302;SDS011;6214;48.012;7.862;2023-04-25T05:53:58;15.50;;;0.90;;
12302;SDS011;6214;48.012;7.862;2023-04-25T05:56:25;15.90;;;1.10;;
12302;SDS011;6214;48.012;7.862;2023-04-25T05:58:52;15.70;;;1.08;;
12302;SDS011;6214;48.012;7.862;2023-04-25T06:01:19;15.80;;;0.90;;
12302;SDS011;6214;48.012;7.862;2023-04-25T06:03:46;15.60;;;0.77;;
12302;SDS011;6214;48.012;7.862;2023-04-25T06:06:14;15.50;;;0.80;;
12302;SDS011;6214;48.012;7.862;2023-04-25T06:08:41;15.37;;;0.67;;
12302;SDS011;6214;48.012;7.862;2023-04-25T06:11:08;15.40;;;0.70;;
12302;SDS011;6214;48.012;7.862;2023-04-25T06:13:35;15.68;;;0.70;;
12302;SDS011;6214;48.012;7.862;2023-04-25T06:16:02;15.90;;;0.68;;
12302;SDS011;6214;48.012;7.862;2023-04-25T06:18:29;15.57;;;0.77;;
12302;SDS011;6214;48.012;7.862;2023-04-25T06:20:56;16.00;;;0.90;;
12302;SDS011;6214;48.012;7.862;2023-04-25T06:23:23;15.40;;;0.70;;
12302;SDS011;6214;48.012;7.862;2023-04-25T06:25:50;15.60;;;0.70;;
12302;SDS011;6214;48.012;7.862;2023-04-25T06:28:17;15.50;;;0.70;;
12302;SDS011;6214;48.012;7.862;2023-04-25T06:30:45;15.57;;;0.90;;
12302;SDS011;6214;48.012;7.862;2023-04-25T06:33:12;15.30;;;0.70;;
12302;SDS011;6214;48.012;7.862;2023-04-25T06:35:39;15.50;;;0.80;;
12302;SDS011;6214;48.012;7.862;2023-04-25T06:38:06;15.60;;;0.80;;
12302;SDS011;6214;48.012;7.862;2023-04-25T06:40:33;15.40;;;0.70;;
12302;SDS011;6214;48.012;7.862;2023-04-25T06:43:00;15.27;;;0.70;;
12302;SDS011;6214;48.012;7.862;2023-04-25T06:45:27;15.40;;;0.90;;
12302;SDS011;6214;48.012;7.862;2023-04-25T06:47:54;16.00;;;0.90;;
12302;SDS011;6214;48.012;7.862;2023-04-25T06:50:21;15.30;;;0.60;;
12302;SDS011;6214;48.012;7.862;2023-04-25T06:52:48;15.30;;;0.70;;
12302;SDS011;6214;48.012;7.862;2023-04-25T06:55:15;15.50;;;0.70;;
12302;SDS011;6214;48.012;7.862;2023-04-25T06:57:42;15.50;;;0.80;;
12302;SDS011;6214;48.012;7.862;2023-04-25T07:00:09;15.40;;;0.80;;
12302;SDS011;6214;48.012;7.862;2023-04-25T07:02:37;15.60;;;0.77;;
12302;SDS011;6214;48.012;7.862;2023-04-25T07:05:04;15.80;;;1.00;;
12302;SDS011;6214;48.012;7.862;2023-04-25T07:07:32;15.90;;;0.93;;
12302;SDS011;6214;48.012;7.862;2023-04-25T07:09:58;15.60;;;0.80;;
12302;SDS011;6214;48.012;7.862;2023-04-25T07:12:25;15.90;;;1.00;;
12302;SDS011;6214;48.012;7.862;2023-04-25T07:14:52;15.50;;;0.90;;
12302;SDS011;6214;48.012;7.862;2023-04-25T07:17:19;15.40;;;0.90;;
12302;SDS011;6214;48.012;7.862;2023-04-25T07:19:46;15.90;;;1.10;;
12302;SDS011;6214;48.012;7.862;2023-04-25T07:22:13;15.50;;;1.00;;
12302;SDS011;6214;48.012;7.862;2023-04-25T07:24:40;15.60;;;1.00;;
12302;SDS011;6214;48.012;7.862;2023-04-25T07:27:07;15.60;;;0.90;;
12302;SDS011;6214;48.012;7.862;2023-04-25T07:29:34;15.70;;;1.00;;
12302;SDS011;6214;48.012;7.862;2023-04-25T07:32:03;15.70;;;1.10;;
12302;SDS011;6214;48.012;7.862;2023-04-25T07:34:31;15.88;;;1.20;;
12302;SDS011;6214;48.012;7.862;2023-04-25T07:36:58;15.80;;;1.00;;
12302;SDS011;6214;48.012;7.862;2023-04-25T07:39:26;15.70;;;1.10;;
12302;SDS011;6214;48.012;7.862;2023-04-25T07:41:53;15.70;;;1.08;;
12302;SDS011;6214;48.012;7.862;2023-04-25T07:44:21;15.80;;;1.20;;
12302;SDS011;6214;48.012;7.862;2023-04-25T07:46:48;15.60;;;1.00;;
12302;SDS011;6214;48.012;7.862;2023-04-25T07:49:14;15.50;;;0.90;;
12302;SDS011;6214;48.012;7.862;2023-04-25T07:51:42;16.63;;;1.30;;
12302;SDS011;6214;48.012;7.862;2023-04-25T07:54:14;15.80;;;1.13;;
12302;SDS011;6214;48.012;7.862;2023-04-25T07:56:43;15.70;;;1.20;;
12302;SDS011;6214;48.012;7.862;2023-04-25T07:59:19;15.93;;;1.17;;
12302;SDS011;6214;48.012;7.862;2023-04-25T08:01:46;16.20;;;1.20;;
12302;SDS011;6214;48.012;7.862;2023-04-25T08:04:12;15.70;;;1.00;;
12302;SDS011;6214;48.012;7.862;2023-04-25T08:06:40;15.70;;;1.10;;
12302;SDS011;6214;48.012;7.862;2023-04-25T08:09:07;15.90;;;1.00;;
12302;SDS011;6214;48.012;7.862;2023-04-25T08:11:35;15.90;;;1.20;;
12302;SDS011;6214;48.012;7.862;2023-04-25T08:14:03;15.70;;;1.10;;
12302;SDS011;6214;48.012;7.862;2023-04-25T08:16:30;15.80;;;1.17;;
12302;SDS011;6214;48.012;7.862;2023-04-25T08:18:57;15.70;;;1.10;;
12302;SDS011;6214;48.012;7.862;2023-04-25T08:21:25;16.00;;;1.20;;
12302;SDS011;6214;48.012;7.862;2023-04-25T08:23:53;15.93;;;1.00;;
12302;SDS011;6214;48.012;7.862;2023-04-25T08:26:20;15.90;;;1.10;;
12302;SDS011;6214;48.012;7.862;2023-04-25T08:28:47;15.90;;;1.10;;
12302;SDS011;6214;48.012;7.862;2023-04-25T08:31:15;15.90;;;1.10;;
12302;SDS011;6214;48.012;7.862;2023-04-25T08:33:42;15.80;;;1.00;;
12302;SDS011;6214;48.012;7.862;2023-04-25T08:36:10;16.10;;;1.27;;
12302;SDS011;6214;48.012;7.862;2023-04-25T08:38:37;16.00;;;1.20;;
12302;SDS011;6214;48.012;7.862;2023-04-25T08:41:04;15.65;;;1.00;;
12302;SDS011;6214;48.012;7.862;2023-04-25T08:43:33;15.60;;;1.00;;
12302;SDS011;6214;48.012;7.862;2023-04-25T08:46:01;15.80;;;1.10;;
12302;SDS011;6214;48.012;7.862;2023-04-25T08:48:28;15.63;;;1.10;;
12302;SDS011;6214;48.012;7.862;2023-04-25T08:50:59;15.70;;;1.10;;
12302;SDS011;6214;48.012;7.862;2023-04-25T08:53:29;15.70;;;1.20;;
12302;SDS011;6214;48.012;7.862;2023-04-25T08:56:00;15.77;;;1.20;;
12302;SDS011;6214;48.012;7.862;2023-04-25T08:58:30;15.88;;;1.02;;
12302;SDS011;6214;48.012;7.862;2023-04-25T09:00:58;15.90;;;1.20;;
12302;SDS011;6214;48.012;7.862;2023-04-25T09:03:26;15.70;;;1.10;;
12302;SDS011;6214;48.012;7.862;2023-04-25T09:05:54;15.80;;;1.17;;
12302;SDS011;6214;48.012;7.862;2023-04-25T09:08:22;16.20;;;1.38;;
12302;SDS011;6214;48.012;7.862;2023-04-25T09:10:49;15.70;;;1.10;;
12302;SDS011;6214;48.012;7.862;2023-04-25T09:13:23;15.80;;;1.10;;
12302;SDS011;6214;48.012;7.862;2023-04-25T09:15:52;16.10;;;1.40;;
12302;SDS011;6214;48.012;7.862;2023-04-25T09:18:23;15.70;;;1.25;;
12302;SDS011;6214;48.012;7.862;2023-04-25T09:20:57;15.90;;;1.30;;
12302;SDS011;6214;48.012;7.862;2023-04-25T09:23:46;15.60;;;1.00;;
12302;SDS011;6214;48.012;7.862;2023-04-25T09:26:14;16.13;;;1.20;;
12302;SDS011;6214;48.012;7.862;2023-04-25T09:28:43;15.90;;;1.17;;
12302;SDS011;6214;48.012;7.862;2023-04-25T09:31:12;15.75;;;1.10;;
12302;SDS011;6214;48.012;7.862;2023-04-25T09:33:47;15.70;;;1.17;;
12302;SDS011;6214;48.012;7.862;2023-04-25T09:36:15;15.60;;;1.10;;
12302;SDS011;6214;48.012;7.862;2023-04-25T09:38:43;16.08;;;1.20;;
12302;SDS011;6214;48.012;7.862;2023-04-25T09:41:11;15.70;;;1.10;;
12302;SDS011;6214;48.012;7.862;2023-04-25T09:43:38;15.70;;;1.08;;
12302;SDS011;6214;48.012;7.862;2023-04-25T09:46:09;16.05;;;1.10;;
12302;SDS011;6214;48.012;7.862;2023-04-25T09:48:38;15.90;;;1.10;;
12302;SDS011;6214;48.012;7.862;2023-04-25T09:53:39;15.85;;;1.20;;
12302;SDS011;6214;48.012;7.862;2023-04-25T09:56:07;15.90;;;1.10;;
12302;SDS011;6214;48.012;7.862;2023-04-25T09:58:36;15.70;;;1.00;;
12302;SDS011;6214;48.012;7.862;2023-04-25T10:01:05;15.70;;;1.00;;
12302;SDS011;6214;48.012;7.862;2023-04-25T10:03:34;15.80;;;1.30;;
12302;SDS011;6214;48.012;7.862;2023-04-25T10:06:04;15.70;;;1.10;;
12302;SDS011;6214;48.012;7.862;2023-04-25T10:08:35;15.50;;;0.90;;
12302;SDS011;6214;48.012;7.862;2023-04-25T10:11:04;15.60;;;1.00;;
12302;SDS011;6214;48.012;7.862;2023-04-25T10:13:33;15.60;;;1.00;;
12302;SDS011;6214;48.012;7.862;2023-04-25T10:16:02;15.60;;;1.00;;
12302;SDS011;6214;48.012;7.862;2023-04-25T10:18:31;15.93;;;1.00;;
12302;SDS011;6214;48.012;7.862;2023-04-25T10:21:02;15.77;;;1.10;;
12302;SDS011;6214;48.012;7.862;2023-04-25T10:23:32;15.90;;;1.10;;
12302;SDS011;6214;48.012;7.862;2023-04-25T10:26:01;15.98;;;1.20;;
12302;SDS011;6214;48.012;7.862;2023-04-25T10:28:28;15.80;;;1.10;;
12302;SDS011;6214;48.012;7.862;2023-04-25T10:31:01;16.10;;;1.00;;
12302;SDS011;6214;48.012;7.862;2023-04-25T10:33:37;15.80;;;1.15;;
12302;SDS011;6214;48.012;7.862;2023-04-25T10:36:12;15.90;;;1.15;;
12302;SDS011;6214;48.012;7.862;2023-04-25T10:38:49;16.10;;;1.20;;
12302;SDS011;6214;48.012;7.862;2023-04-25T10:41:18;15.97;;;1.30;;
12302;SDS011;6214;48.012;7.862;2023-04-25T10:43:47;16.10;;;1.40;;
12302;SDS011;6214;48.012;7.862;2023-04-25T10:46:16;16.00;;;1.00;;
12302;SDS011;6214;48.012;7.862;2023-04-25T10:48:51;15.52;;;0.90;;
12302;SDS011;6214;48.012;7.862;2023-04-25T10:51:21;15.80;;;1.10;;
12302;SDS011;6214;48.012;7.862;2023-04-25T10:54:00;15.85;;;1.20;;
12302;SDS011;6214;48.012;7.862;2023-04-25T10:56:32;15.80;;;1.20;;
12302;SDS011;6214;48.012;7.862;2023-04-25T10:59:17;15.90;;;1.10;;
12302;SDS011;6214;48.012;7.862;2023-04-25T11:01:51;15.90;;;1.10;;
12302;SDS011;6214;48.012;7.862;2023-04-25T11:04:24;16.00;;;1.30;;
12302;SDS011;6214;48.012;7.862;2023-04-25T11:09:52;15.88;;;1.10;;
12302;SDS011;6214;48.012;7.862;2023-04-25T11:12:19;15.60;;;1.00;;
12302;SDS011;6214;48.012;7.862;2023-04-25T11:14:46;15.90;;;1.20;;
12302;SDS011;6214;48.012;7.862;2023-04-25T11:17:13;15.90;;;1.13;;
12302;SDS011;6214;48.012;7.862;2023-04-25T11:19:41;15.90;;;1.20;;
12302;SDS011;6214;48.012;7.862;2023-04-25T11:22:08;15.80;;;1.15;;
12302;SDS011;6214;48.012;7.862;2023-04-25T11:24:36;15.98;;;1.10;;
12302;SDS011;6214;48.012;7.862;2023-04-25T11:27:04;16.40;;;1.20;;
12302;SDS011;6214;48.012;7.862;2023-04-25T11:29:34;16.10;;;1.20;;
12302;SDS011;6214;48.012;7.862;2023-04-25T11:32:02;15.70;;;1.10;;
12302;SDS011;6214;48.012;7.862;2023-04-25T11:34:29;15.98;;;1.20;;
12302;SDS011;6214;48.012;7.862;2023-04-25T11:36:58;15.80;;;1.20;;
12302;SDS011;6214;48.012;7.862;2023-04-25T11:39:29;15.80;;;1.13;;
12302;SDS011;6214;48.012;7.862;2023-04-25T11:41:56;16.10;;;1.10;;
12302;SDS011;6214;48.012;7.862;2023-04-25T11:44:23;15.70;;;0.98;;
12302;SDS011;6214;48.012;7.862;2023-04-25T11:46:50;16.02;;;1.00;;
12302;SDS011;6214;48.012;7.862;2023-04-25T11:49:17;15.88;;;1.05;;
12302;SDS011;6214;48.012;7.862;2023-04-25T11:51:45;16.00;;;1.25;;
12302;SDS011;6214;48.012;7.862;2023-04-25T11:54:13;15.90;;;1.00;;
12302;SDS011;6214;48.012;7.862;2023-04-25T11:56:41;15.80;;;1.00;;
12302;SDS011;6214;48.012;7.862;2023-04-25T11:59:09;15.80;;;1.00;;
12302;SDS011;6214;48.012;7.862;2023-04-25T12:01:38;15.70;;;0.98;;
12302;SDS011;6214;48.012;7.862;2023-04-25T12:04:10;15.80;;;0.90;;
12302;SDS011;6214;48.012;7.862;2023-04-25T12:06:42;16.60;;;1.20;;
12302;SDS011;6214;48.012;7.862;2023-04-25T12:09:11;15.98;;;1.00;;
12302;SDS011;6214;48.012;7.862;2023-04-25T12:11:46;15.50;;;0.90;;
12302;SDS011;6214;48.012;7.862;2023-04-25T12:16:55;15.70;;;1.10;;
12302;SDS011;6214;48.012;7.862;2023-04-25T12:19:24;15.70;;;1.10;;
12302;SDS011;6214;48.012;7.862;2023-04-25T12:21:52;16.00;;;1.40;;
12302;SDS011;6214;48.012;7.862;2023-04-25T12:24:28;15.93;;;1.30;;
12302;SDS011;6214;48.012;7.862;2023-04-25T12:27:04;15.90;;;1.20;;
12302;SDS011;6214;48.012;7.862;2023-04-25T12:29:33;16.70;;;1.30;;
12302;SDS011;6214;48.012;7.862;2023-04-25T12:32:15;15.90;;;1.20;;
12302;SDS011;6214;48.012;7.862;2023-04-25T12:34:43;15.93;;;1.00;;
12302;SDS011;6214;48.012;7.862;2023-04-25T12:37:10;15.80;;;1.05;;
12302;SDS011;6214;48.012;7.862;2023-04-25T12:39:38;15.90;;;1.10;;
12302;SDS011;6214;48.012;7.862;2023-04-25T12:42:05;15.70;;;1.10;;
12302;SDS011;6214;48.012;7.862;2023-04-25T12:44:35;16.00;;;1.08;;
12302;SDS011;6214;48.012;7.862;2023-04-25T12:47:02;15.60;;;1.00;;
12302;SDS011;6214;48.012;7.862;2023-04-25T12:49:30;15.63;;;1.00;;
12302;SDS011;6214;48.012;7.862;2023-04-25T12:51:57;15.80;;;0.90;;
12302;SDS011;6214;48.012;7.862;2023-04-25T12:54:24;16.45;;;1.40;;
12302;SDS011;6214;48.012;7.862;2023-04-25T12:56:52;15.70;;;1.00;;
12302;SDS011;6214;48.012;7.862;2023-04-25T12:59:19;15.80;;;1.00;;
12302;SDS011;6214;48.012;7.862;2023-04-25T13:01:47;16.20;;;1.30;;
12302;SDS011;6214;48.012;7.862;2023-04-25T13:04:15;15.95;;;1.20;;
12302;SDS011;6214;48.012;7.862;2023-04-25T13:06:42;16.08;;;1.20;;
12302;SDS011;6214;48.012;7.862;2023-04-25T13:09:09;15.90;;;1.00;;
12302;SDS011;6214;48.012;7.862;2023-04-25T13:11:39;16.00;;;1.10;;
12302;SDS011;6214;48.012;7.862;2023-04-25T13:14:07;16.60;;;1.83;;
12302;SDS011;6214;48.012;7.862;2023-04-25T13:16:34;16.80;;;1.70;;
12302;SDS011;6214;48.012;7.862;2023-04-25T13:19:01;15.90;;;1.10;;
12302;SDS011;6214;48.012;7.862;2023-04-25T13:21:29;15.90;;;1.00;;
12302;SDS011;6214;48.012;7.862;2023-04-25T13:23:58;16.13;;;1.00;;
12302;SDS011;6214;48.012;7.862;2023-04-25T13:26:26;15.82;;;0.80;;
12302;SDS011;6214;48.012;7.862;2023-04-25T13:28:52;15.80;;;0.80;;
12302;SDS011;6214;48.012;7.862;2023-04-25T13:31:19;15.63;;;0.70;;
12302;SDS011;6214;48.012;7.862;2023-04-25T13:33:47;15.50;;;0.60;;
12302;SDS011;6214;48.012;7.862;2023-04-25T13:36:14;15.60;;;0.73;;
12302;SDS011;6214;48.012;7.862;2023-04-25T13:38:41;15.50;;;0.70;;
12302;SDS011;6214;48.012;7.862;2023-04-25T13:41:10;21.80;;;0.90;;
12302;SDS011;6214;48.012;7.862;2023-04-25T13:43:42;15.57;;;0.80;;
12302;SDS011;6214;48.012;7.862;2023-04-25T13:46:09;16.20;;;0.80;;
12302;SDS011;6214;48.012;7.862;2023-04-25T13:48:56;15.50;;;0.70;;
12302;SDS011;6214;48.012;7.862;2023-04-25T13:51:37;15.50;;;0.73;;
12302;SDS011;6214;48.012;7.862;2023-04-25T13:54:04;15.40;;;0.70;;
12302;SDS011;6214;48.012;7.862;2023-04-25T13:56:31;15.50;;;0.77;;
12302;SDS011;6214;48.012;7.862;2023-04-25T13:58:58;15.70;;;0.73;;
12302;SDS011;6214;48.012;7.862;2023-04-25T14:01:25;15.50;;;0.65;;
12302;SDS011;6214;48.012;7.862;2023-04-25T14:03:52;15.50;;;0.70;;
12302;SDS011;6214;48.012;7.862;2023-04-25T14:06:20;15.50;;;0.70;;
12302;SDS011;6214;48.012;7.862;2023-04-25T14:08:49;15.50;;;0.70;;
12302;SDS011;6214;48.012;7.862;2023-04-25T14:11:17;15.50;;;0.70;;
12302;SDS011;6214;48.012;7.862;2023-04-25T14:13:47;15.73;;;0.90;;
12302;SDS011;6214;48.012;7.862;2023-04-25T14:16:16;15.90;;;0.90;;
12302;SDS011;6214;48.012;7.862;2023-04-25T14:18:43;15.50;;;0.70;;
12302;SDS011;6214;48.012;7.862;2023-04-25T14:21:10;15.60;;;0.90;;
12302;SDS011;6214;48.012;7.862;2023-04-25T14:23:37;15.75;;;0.90;;
12302;SDS011;6214;48.012;7.862;2023-04-25T14:26:04;16.00;;;0.90;;
12302;SDS011;6214;48.012;7.862;2023-04-25T14:28:32;15.80;;;0.90;;
12302;SDS011;6214;48.012;7.862;2023-04-25T14:30:59;15.85;;;0.90;;
12302;SDS011;6214;48.012;7.862;2023-04-25T14:33:27;15.70;;;0.90;;
12302;SDS011;6214;48.012;7.862;2023-04-25T14:35:54;15.60;;;0.80;;
12302;SDS011;6214;48.012;7.862;2023-04-25T14:38:21;15.50;;;0.70;;
12302;SDS011;6214;48.012;7.862;2023-04-25T14:40:49;15.60;;;0.80;;
12302;SDS011;6214;48.012;7.862;2023-04-25T14:43:17;15.50;;;0.70;;
12302;SDS011;6214;48.012;7.862;2023-04-25T14:45:44;15.60;;;0.70;;
12302;SDS011;6214;48.012;7.862;2023-04-25T14:48:11;15.50;;;0.75;;
12302;SDS011;6214;48.012;7.862;2023-04-25T14:50:38;15.70;;;0.80;;
12302;SDS011;6214;48.012;7.862;2023-04-25T14:53:06;15.50;;;0.70;;
12302;SDS011;6214;48.012;7.862;2023-04-25T14:55:33;15.77;;;0.80;;
12302;SDS011;6214;48.012;7.862;2023-04-25T14:58:00;15.77;;;0.93;;
12302;SDS011;6214;48.012;7.862;2023-04-25T15:00:27;16.20;;;1.30;;
12302;SDS011;6214;48.012;7.862;2023-04-25T15:02:54;16.20;;;1.10;;